createdAt,value
2018-09-02T00:00:51.034Z,99.90
2018-09-02T00:03:19.235Z,99.90
2018-09-02T00:05:47.459Z,99.90
2018-09-02T00:08:15.666Z,99.90
2018-09-02T00:10:43.880Z,99.90
2018-09-02T00:13:12.065Z,99.90
2018-09-02T00:15:40.280Z,99.90
2018-09-02T00:18:08.519Z,99.90
2018-09-02T00:20:36.818Z,99.90
2018-09-02T00:23:05.124Z,99.90
2018-09-02T00:25:33.322Z,99.90
2018-09-02T00:28:01.702Z,99.90
2018-09-02T00:30:29.910Z,99.90
2018-09-02T00:32:58.135Z,99.90
2018-09-02T00:35:26.346Z,99.90
2018-09-02T00:37:54.547Z,99.90
2018-09-02T00:40:22.745Z,99.90
2018-09-02T00:42:50.939Z,99.90
2018-09-02T00:45:19.127Z,99.90
2018-09-02T00:47:47.346Z,99.90
2018-09-02T00:50:15.613Z,99.90
2018-09-02T00:52:43.811Z,99.90
2018-09-02T00:55:12.038Z,99.90
2018-09-02T00:57:40.250Z,99.90
2018-09-02T01:00:08.480Z,99.90
2018-09-02T01:02:36.856Z,99.90
2018-09-02T01:05:05.257Z,99.90
2018-09-02T01:07:33.512Z,99.90
2018-09-02T01:10:01.714Z,99.90
2018-09-02T01:12:29.924Z,99.90
2018-09-02T01:14:58.104Z,99.90
2018-09-02T01:17:26.298Z,99.90
2018-09-02T01:19:54.439Z,99.90
2018-09-02T01:22:22.616Z,99.90
2018-09-02T01:24:50.806Z,99.90
2018-09-02T01:27:18.970Z,99.90
2018-09-02T01:29:47.132Z,99.90
2018-09-02T01:32:15.600Z,99.90
2018-09-02T01:34:43.792Z,99.90
2018-09-02T01:37:11.969Z,99.90
2018-09-02T01:39:40.123Z,99.90
2018-09-02T01:42:08.305Z,99.90
2018-09-02T01:44:36.507Z,99.90
2018-09-02T01:47:04.699Z,99.90
2018-09-02T01:49:32.884Z,99.90
2018-09-02T01:52:01.056Z,99.90
2018-09-02T01:54:29.218Z,99.90
2018-09-02T01:56:57.399Z,99.90
2018-09-02T01:59:25.591Z,99.90
2018-09-02T02:01:53.773Z,99.90
2018-09-02T02:04:21.969Z,99.90
2018-09-02T02:06:50.172Z,99.90
2018-09-02T02:09:18.357Z,99.90
2018-09-02T02:11:46.535Z,99.90
2018-09-02T02:14:14.709Z,99.90
2018-09-02T02:16:42.890Z,99.90
2018-09-02T02:19:11.076Z,99.90
2018-09-02T02:21:39.247Z,99.90
2018-09-02T02:24:07.507Z,99.90
2018-09-02T02:26:35.716Z,99.90
2018-09-02T02:29:03.898Z,99.90
2018-09-02T02:31:32.106Z,99.90
2018-09-02T02:34:00.286Z,99.90
2018-09-02T02:36:28.487Z,99.90
2018-09-02T02:38:56.653Z,99.90
2018-09-02T02:41:24.824Z,99.90
2018-09-02T02:43:53.119Z,99.90
2018-09-02T02:46:21.310Z,99.90
2018-09-02T02:48:49.503Z,99.90
2018-09-02T02:51:17.674Z,99.90
2018-09-02T02:53:45.864Z,99.90
2018-09-02T02:56:14.045Z,99.90
2018-09-02T02:58:42.213Z,99.90
2018-09-02T03:01:10.387Z,99.90
2018-09-02T03:03:38.561Z,99.90
2018-09-02T03:06:06.739Z,99.90
2018-09-02T03:08:34.907Z,99.90
2018-09-02T03:11:03.098Z,99.90
2018-09-02T03:13:31.268Z,99.90
2018-09-02T03:15:59.451Z,99.90
2018-09-02T03:18:27.623Z,99.90
2018-09-02T03:20:55.811Z,99.90
2018-09-02T03:23:23.969Z,99.90
2018-09-02T03:25:52.155Z,99.90
2018-09-02T03:28:20.325Z,99.90
2018-09-02T03:30:48.493Z,99.90
2018-09-02T03:33:16.662Z,99.90
2018-09-02T03:35:44.835Z,99.90
2018-09-02T03:38:13.014Z,99.90
2018-09-02T03:40:41.207Z,99.90
2018-09-02T03:43:09.387Z,99.90
2018-09-02T03:45:37.550Z,99.90
2018-09-02T03:48:05.786Z,99.90
2018-09-02T03:50:33.948Z,99.90
2018-09-02T03:53:02.145Z,99.90
2018-09-02T03:55:30.324Z,99.90
2018-09-02T03:57:58.499Z,99.90
2018-09-02T04:00:26.696Z,99.90
2018-09-02T04:02:54.880Z,99.90
2018-09-02T04:05:23.045Z,99.90
2018-09-02T04:07:51.215Z,99.90
2018-09-02T04:10:19.515Z,99.90
2018-09-02T04:12:47.675Z,99.90
2018-09-02T04:15:15.929Z,99.90
2018-09-02T04:17:44.086Z,99.90
2018-09-02T04:20:12.354Z,99.90
2018-09-02T04:22:40.537Z,99.90
2018-09-02T04:25:08.703Z,99.90
2018-09-02T04:27:36.869Z,99.90
2018-09-02T04:30:05.043Z,99.90
2018-09-02T04:32:33.212Z,99.90
2018-09-02T04:35:01.411Z,99.90
2018-09-02T04:37:29.591Z,99.90
2018-09-02T04:39:57.754Z,99.90
2018-09-02T04:42:25.923Z,99.90
2018-09-02T04:44:54.102Z,99.90
2018-09-02T04:47:22.274Z,99.90
2018-09-02T04:49:50.426Z,99.90
2018-09-02T04:52:18.628Z,99.90
2018-09-02T04:54:46.805Z,99.90
2018-09-02T04:57:14.991Z,99.90
2018-09-02T04:59:43.177Z,99.90
2018-09-02T05:02:11.411Z,99.90
2018-09-02T05:04:39.571Z,99.90
2018-09-02T05:07:07.749Z,99.90
2018-09-02T05:09:35.920Z,99.90
2018-09-02T05:12:04.093Z,99.90
2018-09-02T05:14:32.271Z,99.90
2018-09-02T05:17:00.446Z,99.90
2018-09-02T05:19:28.608Z,99.90
2018-09-02T05:21:56.796Z,99.90
2018-09-02T05:24:24.975Z,99.90
2018-09-02T05:26:53.156Z,99.90
2018-09-02T05:29:21.327Z,99.90
2018-09-02T05:31:49.507Z,99.90
2018-09-02T05:34:17.687Z,99.90
2018-09-02T05:36:45.872Z,99.90
2018-09-02T05:39:14.059Z,99.90
2018-09-02T05:41:42.242Z,99.90
2018-09-02T05:44:10.956Z,99.90
2018-09-02T05:46:39.131Z,99.90
2018-09-02T05:49:07.303Z,99.90
2018-09-02T05:51:35.503Z,99.90
2018-09-02T05:54:03.698Z,99.90
2018-09-02T05:56:31.864Z,99.90
2018-09-02T05:59:00.055Z,99.90
2018-09-02T06:01:28.225Z,99.90
2018-09-02T06:03:56.418Z,99.90
2018-09-02T06:06:24.592Z,99.90
2018-09-02T06:08:52.760Z,99.90
2018-09-02T06:11:20.947Z,99.90
2018-09-02T06:13:49.115Z,99.90
2018-09-02T06:16:17.280Z,99.90
2018-09-02T06:18:45.459Z,99.90
2018-09-02T06:21:13.622Z,99.90
2018-09-02T06:23:41.816Z,99.90
2018-09-02T06:26:09.984Z,99.90
2018-09-02T06:28:38.189Z,99.90
2018-09-02T06:31:06.442Z,99.90
2018-09-02T06:33:34.636Z,99.90
2018-09-02T06:36:02.813Z,99.90
2018-09-02T06:38:31.104Z,99.90
2018-09-02T06:40:59.284Z,99.90
2018-09-02T06:43:27.478Z,99.90
2018-09-02T06:45:55.676Z,99.90
2018-09-02T06:48:23.883Z,99.90
2018-09-02T06:50:52.072Z,99.90
2018-09-02T06:53:20.250Z,99.90
2018-09-02T06:55:48.429Z,99.90
2018-09-02T06:58:16.611Z,99.90
2018-09-02T07:00:44.795Z,99.90
2018-09-02T07:03:12.974Z,99.90
2018-09-02T07:05:42.170Z,99.90
2018-09-02T07:08:11.688Z,99.90
2018-09-02T07:10:40.576Z,99.90
2018-09-02T07:13:08.743Z,99.90
2018-09-02T07:15:36.958Z,99.90
2018-09-02T07:18:05.119Z,99.90
2018-09-02T07:20:33.878Z,99.90
2018-09-02T07:23:02.146Z,99.90
2018-09-02T07:25:30.397Z,99.90
2018-09-02T07:27:58.568Z,99.90
2018-09-02T07:30:26.872Z,99.90
2018-09-02T07:32:55.050Z,99.90
2018-09-02T07:35:23.332Z,99.90
2018-09-02T07:37:51.514Z,99.90
2018-09-02T07:40:19.703Z,99.90
2018-09-02T07:42:47.895Z,99.90
2018-09-02T07:45:16.842Z,99.90
2018-09-02T07:47:45.007Z,99.90
2018-09-02T07:50:13.199Z,99.90
2018-09-02T07:52:41.375Z,99.90
2018-09-02T07:55:09.657Z,99.90
2018-09-02T07:57:37.857Z,99.90
2018-09-02T08:00:07.708Z,99.90
2018-09-02T08:02:35.890Z,99.90
2018-09-02T08:05:04.071Z,99.90
2018-09-02T08:07:32.253Z,99.90
2018-09-02T08:10:00.425Z,99.90
2018-09-02T08:12:28.622Z,99.90
2018-09-02T08:14:56.807Z,99.90
2018-09-02T08:17:24.968Z,99.90
2018-09-02T08:19:53.211Z,99.90
2018-09-02T08:22:21.327Z,99.90
2018-09-02T08:24:49.494Z,99.90
2018-09-02T08:27:17.673Z,99.90
2018-09-02T08:29:45.829Z,99.90
2018-09-02T08:32:14.027Z,99.90
2018-09-02T08:34:42.208Z,99.90
2018-09-02T08:37:10.389Z,99.90
2018-09-02T08:39:38.553Z,99.90
2018-09-02T08:42:06.719Z,99.90
2018-09-02T08:44:34.903Z,99.90
2018-09-02T08:47:03.463Z,99.90
2018-09-02T08:49:31.641Z,99.90
2018-09-02T08:51:59.847Z,99.90
2018-09-02T08:54:28.039Z,99.90
2018-09-02T08:56:56.224Z,99.90
2018-09-02T08:59:24.413Z,99.90
2018-09-02T09:01:52.581Z,99.60
2018-09-02T09:04:20.779Z,99.60
2018-09-02T09:06:48.951Z,99.50
2018-09-02T09:09:17.358Z,99.20
2018-09-02T09:11:45.332Z,99.60
2018-09-02T09:14:13.648Z,99.40
2018-09-02T09:16:41.757Z,98.90
2018-09-02T09:19:09.872Z,99.10
2018-09-02T09:21:38.140Z,99.10
2018-09-02T09:24:06.429Z,99.80
2018-09-02T09:26:34.557Z,99.90
2018-09-02T09:29:02.735Z,99.70
2018-09-02T09:31:30.917Z,99.00
2018-09-02T09:33:59.326Z,99.00
2018-09-02T09:36:27.741Z,99.20
2018-09-02T09:38:55.920Z,99.40
2018-09-02T09:41:24.116Z,99.60
2018-09-02T09:43:52.285Z,99.10
2018-09-02T09:46:20.482Z,99.10
2018-09-02T09:48:48.671Z,98.60
2018-09-02T09:51:16.880Z,98.80
2018-09-02T09:53:45.073Z,99.00
2018-09-02T09:56:13.243Z,99.10
2018-09-02T09:58:41.423Z,98.70
2018-09-02T10:01:09.604Z,98.80
2018-09-02T10:03:37.821Z,98.70
2018-09-02T10:06:06.044Z,99.10
2018-09-02T10:08:34.215Z,98.60
2018-09-02T10:11:02.387Z,98.90
2018-09-02T10:13:30.587Z,98.60
2018-09-02T10:15:58.753Z,99.00
2018-09-02T10:18:26.939Z,98.80
2018-09-02T10:20:55.118Z,98.40
2018-09-02T10:23:23.341Z,98.40
2018-09-02T10:25:51.530Z,98.50
2018-09-02T10:28:19.758Z,98.60
2018-09-02T10:30:47.919Z,98.10
2018-09-02T10:33:16.128Z,98.20
2018-09-02T10:35:44.300Z,98.30
2018-09-02T10:38:12.478Z,98.20
2018-09-02T10:40:40.683Z,98.00
2018-09-02T10:43:08.866Z,98.20
2018-09-02T10:45:37.063Z,98.10
2018-09-02T10:48:05.575Z,98.30
2018-09-02T10:50:33.859Z,97.80
2018-09-02T10:53:02.042Z,98.50
2018-09-02T10:55:30.296Z,97.80
2018-09-02T10:57:58.499Z,98.40
2018-09-02T11:00:26.696Z,98.00
2018-09-02T11:02:54.890Z,98.00
2018-09-02T11:05:23.068Z,97.70
2018-09-02T11:07:51.376Z,98.30
2018-09-02T11:10:20.392Z,98.00
2018-09-02T11:12:48.585Z,97.70
2018-09-02T11:15:16.780Z,97.90
2018-09-02T11:17:44.955Z,97.10
2018-09-02T11:20:13.198Z,97.50
2018-09-02T11:22:41.364Z,98.30
2018-09-02T11:25:09.562Z,98.30
2018-09-02T11:27:37.724Z,98.10
2018-09-02T11:30:06.767Z,98.70
2018-09-02T11:32:35.010Z,98.50
2018-09-02T11:35:03.271Z,98.10
2018-09-02T11:37:31.453Z,98.20
2018-09-02T11:39:59.659Z,98.70
2018-09-02T11:42:27.891Z,98.40
2018-09-02T11:44:56.076Z,98.20
2018-09-02T11:47:24.235Z,98.30
2018-09-02T11:49:52.472Z,98.40
2018-09-02T11:52:20.661Z,98.40
2018-09-02T11:54:48.853Z,98.70
2018-09-02T11:57:17.033Z,98.60
2018-09-02T11:59:45.302Z,99.00
2018-09-02T12:02:13.453Z,98.90
2018-09-02T12:04:41.752Z,99.50
2018-09-02T12:07:09.919Z,99.60
2018-09-02T12:09:38.105Z,99.00
2018-09-02T12:12:06.277Z,98.70
2018-09-02T12:14:34.577Z,98.80
2018-09-02T12:17:02.708Z,99.30
2018-09-02T12:19:30.929Z,99.40
2018-09-02T12:21:59.103Z,99.90
2018-09-02T12:24:27.290Z,99.60
2018-09-02T12:26:55.461Z,99.30
2018-09-02T12:29:23.644Z,99.30
2018-09-02T12:31:51.806Z,99.60
2018-09-02T12:34:19.977Z,99.90
2018-09-02T12:36:48.173Z,99.90
2018-09-02T12:39:16.343Z,99.90
2018-09-02T12:41:44.541Z,99.90
2018-09-02T12:44:12.707Z,99.90
2018-09-02T12:46:40.917Z,99.90
2018-09-02T12:49:09.096Z,99.90
2018-09-02T12:51:37.409Z,99.90
2018-09-02T12:54:05.592Z,99.90
2018-09-02T12:56:33.772Z,99.90
2018-09-02T12:59:02.005Z,99.90
2018-09-02T13:01:30.201Z,99.90
2018-09-02T13:03:58.394Z,99.90
2018-09-02T13:06:26.613Z,99.90
2018-09-02T13:08:54.784Z,99.90
2018-09-02T13:11:22.978Z,99.90
2018-09-02T13:13:51.154Z,99.90
2018-09-02T13:16:19.345Z,99.90
2018-09-02T13:18:47.509Z,99.90
2018-09-02T13:21:15.737Z,99.90
2018-09-02T13:23:43.932Z,99.90
2018-09-02T13:26:12.100Z,99.90
2018-09-02T13:28:40.271Z,99.90
2018-09-02T13:31:08.683Z,99.90
2018-09-02T13:33:36.915Z,99.90
2018-09-02T13:36:05.083Z,99.90
2018-09-02T13:38:33.823Z,99.90
2018-09-02T13:41:02.031Z,99.90
2018-09-02T13:43:30.215Z,99.90
2018-09-02T13:45:58.384Z,99.90
2018-09-02T13:48:26.676Z,99.90
2018-09-02T13:50:54.824Z,99.90
2018-09-02T13:53:22.958Z,99.90
2018-09-02T13:55:57.986Z,99.90
2018-09-02T13:58:26.170Z,99.90
2018-09-02T14:00:54.420Z,99.90
2018-09-02T14:03:22.636Z,99.90
2018-09-02T14:05:50.812Z,99.90
2018-09-02T14:08:19.009Z,99.90
2018-09-02T14:10:47.170Z,99.90
2018-09-02T14:13:15.336Z,99.90
2018-09-02T14:15:43.513Z,99.90
2018-09-02T14:18:11.709Z,99.90
2018-09-02T14:20:39.899Z,99.90
2018-09-02T14:23:08.155Z,99.90
2018-09-02T14:25:36.336Z,99.90
2018-09-02T14:28:04.516Z,99.90
2018-09-02T14:30:32.670Z,99.90
2018-09-02T14:33:00.857Z,99.90
2018-09-02T14:35:29.056Z,99.90
2018-09-02T14:37:57.236Z,99.90
2018-09-02T14:40:25.402Z,99.90
2018-09-02T14:42:53.599Z,99.90
2018-09-02T14:45:21.816Z,99.90
2018-09-02T14:47:50.041Z,99.90
2018-09-02T14:50:18.212Z,99.90
2018-09-02T14:52:46.390Z,99.90
2018-09-02T14:55:14.586Z,99.90
2018-09-02T14:57:42.773Z,99.90
2018-09-02T15:00:10.964Z,99.90
2018-09-02T15:02:39.155Z,99.90
2018-09-02T15:05:07.779Z,99.90
2018-09-02T15:07:36.007Z,99.90
2018-09-02T15:10:04.207Z,99.90
2018-09-02T15:12:32.352Z,99.90
2018-09-02T15:15:00.577Z,99.90
2018-09-02T15:17:28.930Z,99.90
2018-09-02T15:19:57.120Z,99.90
2018-09-02T15:22:25.339Z,99.90
2018-09-02T15:24:53.512Z,99.90
2018-09-02T15:27:21.789Z,99.90
2018-09-02T15:29:49.915Z,99.90
2018-09-02T15:32:18.182Z,99.90
2018-09-02T15:34:46.369Z,99.90
2018-09-02T15:37:14.558Z,99.90
2018-09-02T15:39:42.897Z,99.90
2018-09-02T15:42:11.073Z,99.90
2018-09-02T15:44:39.314Z,99.90
2018-09-02T15:47:07.486Z,99.90
2018-09-02T15:49:36.376Z,99.90
2018-09-02T15:52:04.618Z,99.90
2018-09-02T15:54:32.838Z,99.90
2018-09-02T15:57:01.044Z,99.90
2018-09-02T15:59:29.223Z,99.90
2018-09-02T16:01:57.390Z,99.90
2018-09-02T16:04:25.555Z,99.90
2018-09-02T16:06:53.803Z,99.90
2018-09-02T16:09:21.983Z,99.90
2018-09-02T16:11:50.174Z,99.90
2018-09-02T16:14:18.386Z,99.90
2018-09-02T16:16:46.563Z,99.90
2018-09-02T16:19:14.733Z,99.90
2018-09-02T16:21:43.070Z,99.90
2018-09-02T16:24:11.246Z,99.90
2018-09-02T16:26:39.449Z,99.90
2018-09-02T16:29:07.676Z,99.90
2018-09-02T16:31:35.850Z,99.90
2018-09-02T16:34:04.096Z,99.90
2018-09-02T16:36:33.331Z,99.90
2018-09-02T16:39:01.537Z,99.90
2018-09-02T16:41:29.834Z,99.90
2018-09-02T16:43:57.932Z,99.90
2018-09-02T16:46:26.156Z,99.90
2018-09-02T16:48:54.404Z,99.90
2018-09-02T16:51:22.622Z,99.90
2018-09-02T16:53:50.800Z,99.90
2018-09-02T16:56:18.983Z,99.90
2018-09-02T16:58:47.172Z,99.90
2018-09-02T17:01:15.353Z,99.90
2018-09-02T17:03:46.821Z,99.90
2018-09-02T17:06:15.081Z,99.90
2018-09-02T17:08:43.270Z,99.90
2018-09-02T17:13:46.064Z,99.90
2018-09-02T17:16:14.255Z,99.90
2018-09-02T17:18:42.452Z,99.90
2018-09-02T17:21:10.627Z,99.90
2018-09-02T17:23:38.807Z,99.90
2018-09-02T17:26:07.313Z,99.90
2018-09-02T17:28:35.517Z,99.90
2018-09-02T17:31:03.699Z,99.90
2018-09-02T17:33:31.896Z,99.90
2018-09-02T17:36:00.060Z,99.90
2018-09-02T17:38:28.228Z,99.90
2018-09-02T17:40:56.391Z,99.90
2018-09-02T17:43:24.569Z,99.90
2018-09-02T17:45:52.847Z,99.90
2018-09-02T17:48:20.945Z,99.90
2018-09-02T17:50:49.131Z,99.90
2018-09-02T17:53:17.315Z,99.90
2018-09-02T17:55:46.352Z,99.90
2018-09-02T17:58:14.536Z,99.90
2018-09-02T18:00:48.104Z,99.90
2018-09-02T18:03:16.292Z,99.90
2018-09-02T18:05:44.502Z,99.90
2018-09-02T18:08:12.697Z,99.90
2018-09-02T18:10:40.868Z,99.90
2018-09-02T18:13:09.047Z,99.90
2018-09-02T18:15:37.221Z,99.90
2018-09-02T18:18:05.423Z,99.90
2018-09-02T18:20:33.599Z,99.90
2018-09-02T18:23:01.785Z,99.90
2018-09-02T18:25:29.950Z,99.90
2018-09-02T18:28:01.355Z,99.90
2018-09-02T18:30:29.560Z,99.90
2018-09-02T18:32:57.744Z,99.90
2018-09-02T18:35:25.923Z,99.90
2018-09-02T18:37:54.131Z,99.90
2018-09-02T18:40:22.353Z,99.90
2018-09-02T18:42:50.746Z,99.90
2018-09-02T18:45:19.138Z,99.90
2018-09-02T18:47:47.960Z,99.90
2018-09-02T18:50:16.737Z,99.90
2018-09-02T18:52:44.900Z,99.90
2018-09-02T18:55:13.080Z,99.90
2018-09-02T18:57:41.255Z,99.90
2018-09-02T19:00:09.439Z,99.90
2018-09-02T19:02:37.714Z,99.90
2018-09-02T19:05:06.102Z,99.90
2018-09-02T19:07:34.294Z,99.90
2018-09-02T19:10:02.497Z,99.90
2018-09-02T19:12:30.684Z,99.90
2018-09-02T19:14:59.000Z,99.90
2018-09-02T19:17:27.028Z,99.90
2018-09-02T19:19:55.215Z,99.90
2018-09-02T19:22:23.387Z,99.90
2018-09-02T19:24:51.604Z,99.90
2018-09-02T19:27:19.760Z,99.90
2018-09-02T19:29:48.004Z,99.90
2018-09-02T19:32:16.135Z,99.90
2018-09-02T19:34:44.310Z,99.90
2018-09-02T19:37:12.498Z,99.90
2018-09-02T19:39:40.721Z,99.90
2018-09-02T19:42:08.876Z,99.90
2018-09-02T19:44:37.090Z,99.90
2018-09-02T19:47:05.272Z,99.90
2018-09-02T19:49:33.444Z,99.90
2018-09-02T19:52:01.602Z,99.90
2018-09-02T19:54:29.863Z,99.90
2018-09-02T19:56:58.196Z,99.90
2018-09-02T19:59:26.380Z,99.90
2018-09-02T20:01:54.572Z,99.90
2018-09-02T20:04:22.758Z,99.90
2018-09-02T20:06:50.943Z,99.90
2018-09-02T20:09:19.098Z,99.90
2018-09-02T20:11:47.271Z,99.90
2018-09-02T20:14:15.434Z,99.90
2018-09-02T20:16:43.620Z,99.90
2018-09-02T20:19:11.874Z,99.90
2018-09-02T20:21:39.964Z,99.90
2018-09-02T20:24:08.144Z,99.90
2018-09-02T20:26:36.806Z,99.90
2018-09-02T20:29:05.000Z,99.90
2018-09-02T20:31:33.287Z,99.90
2018-09-02T20:34:01.649Z,99.90
2018-09-02T20:36:29.828Z,99.90
2018-09-02T20:38:58.008Z,99.90
2018-09-02T20:41:26.188Z,99.90
2018-09-02T20:43:54.351Z,99.90
2018-09-02T20:46:22.537Z,99.90
2018-09-02T20:48:50.703Z,99.90
2018-09-02T20:51:18.904Z,99.90
2018-09-02T20:53:47.101Z,99.90
2018-09-02T20:56:15.287Z,99.90
2018-09-02T20:58:43.508Z,99.90
2018-09-02T21:01:11.804Z,99.90
2018-09-02T21:03:40.007Z,99.90
2018-09-02T21:06:08.185Z,99.90
2018-09-02T21:08:36.355Z,99.90
2018-09-02T21:11:04.559Z,99.90
2018-09-02T21:13:32.766Z,99.90
2018-09-02T21:16:00.951Z,99.90
2018-09-02T21:18:29.126Z,99.90
2018-09-02T21:20:57.311Z,99.90
2018-09-02T21:23:25.506Z,99.90
2018-09-02T21:25:53.683Z,99.90
2018-09-02T21:28:21.862Z,99.90
2018-09-02T21:30:50.034Z,99.90
2018-09-02T21:33:18.241Z,99.90
2018-09-02T21:35:46.417Z,99.90
2018-09-02T21:38:14.619Z,99.90
2018-09-02T21:40:42.784Z,99.90
2018-09-02T21:43:10.979Z,99.90
2018-09-02T21:45:39.128Z,99.90
2018-09-02T21:48:07.310Z,99.90
2018-09-02T21:50:35.518Z,99.90
2018-09-02T21:53:03.699Z,99.90
2018-09-02T21:55:31.890Z,99.90
2018-09-02T21:58:00.083Z,99.90
2018-09-02T22:00:28.255Z,99.90
2018-09-02T22:02:56.453Z,99.90
2018-09-02T22:05:24.617Z,99.90
2018-09-02T22:07:52.798Z,99.90
2018-09-02T22:10:20.995Z,99.90
2018-09-02T22:12:49.175Z,99.90
2018-09-02T22:15:17.348Z,99.90
2018-09-02T22:17:45.573Z,99.90
2018-09-02T22:20:13.786Z,99.90
2018-09-02T22:22:41.976Z,99.90
2018-09-02T22:25:10.607Z,99.90
2018-09-02T22:27:39.020Z,99.90
2018-09-02T22:30:07.979Z,99.90
2018-09-02T22:32:36.180Z,99.90
2018-09-02T22:35:04.393Z,99.90
2018-09-02T22:37:32.552Z,99.90
2018-09-02T22:40:00.760Z,99.90
2018-09-02T22:42:28.915Z,99.90
2018-09-02T22:44:57.114Z,99.90
2018-09-02T22:47:25.310Z,99.90
2018-09-02T22:49:53.488Z,99.90
2018-09-02T22:52:21.667Z,99.90
2018-09-02T22:54:49.849Z,99.90
2018-09-02T22:57:18.035Z,99.90
2018-09-02T22:59:46.200Z,99.90
2018-09-02T23:02:14.400Z,99.90
2018-09-02T23:04:42.584Z,99.90
2018-09-02T23:07:10.739Z,99.90
2018-09-02T23:09:38.918Z,99.90
2018-09-02T23:12:07.156Z,99.90
2018-09-02T23:14:35.335Z,99.90
2018-09-02T23:17:03.504Z,99.90
2018-09-02T23:19:31.756Z,99.90
2018-09-02T23:21:59.882Z,99.90
2018-09-02T23:24:28.052Z,99.90
2018-09-02T23:26:56.215Z,99.90
2018-09-02T23:29:24.396Z,99.90
2018-09-02T23:31:52.581Z,99.90
2018-09-02T23:34:20.770Z,99.90
2018-09-02T23:36:48.933Z,99.90
2018-09-02T23:39:17.111Z,99.90
2018-09-02T23:41:45.286Z,99.90
2018-09-02T23:44:13.444Z,99.90
2018-09-02T23:46:41.599Z,99.90
2018-09-02T23:49:09.753Z,99.90
2018-09-02T23:51:37.951Z,99.90
2018-09-02T23:54:06.115Z,99.90
2018-09-02T23:56:34.298Z,99.90
2018-09-02T23:59:02.460Z,99.90
